Time;durP1;ratioP1;P1;durP2;ratioP2;P2;SDS_P1;SDS_P2;PMS_P1;PMS_P2;Temp;Humidity;BMP_temperature;BMP_pressure;BME280_temperature;BME280_humidity;BME280_pressure;Samples;Min_cycle;Max_cycle;Signal;HPM_P1;HPM_P2
2023/08/02 00:01:02;;;;;;;35.60;33.00;;;20.00;99.90;;;;;;5031422;28;20045;-74
2023/08/02 00:03:28;;;;;;;37.58;34.97;;;20.00;99.90;;;;;;5015052;28;20064;-74
2023/08/02 00:05:55;;;;;;;35.88;33.63;;;20.10;99.90;;;;;;5032220;28;20044;-74
2023/08/02 00:08:22;;;;;;;39.35;36.97;;;20.10;99.90;;;;;;5031524;28;20029;-73
2023/08/02 00:10:48;;;;;;;33.97;31.05;;;20.10;99.90;;;;;;5031190;28;20040;-74
2023/08/02 00:13:14;;;;;;;35.50;32.85;;;20.10;99.90;;;;;;5032558;28;20034;-74
2023/08/02 00:15:40;;;;;;;41.42;38.38;;;20.10;99.90;;;;;;5031447;28;20048;-73
2023/08/02 00:18:07;;;;;;;36.85;33.90;;;20.10;99.90;;;;;;5031297;28;20033;-74
2023/08/02 00:20:33;;;;;;;33.85;30.92;;;20.10;99.90;;;;;;5032112;28;20048;-74
2023/08/02 00:22:59;;;;;;;39.67;36.88;;;20.10;99.90;;;;;;5031181;28;20033;-74
2023/08/02 00:25:25;;;;;;;34.25;31.30;;;20.10;99.90;;;;;;5030892;28;20386;-74
2023/08/02 00:27:51;;;;;;;41.58;38.42;;;20.10;99.90;;;;;;5031297;28;20029;-75
2023/08/02 00:30:17;;;;;;;30.15;27.52;;;20.20;99.90;;;;;;5030022;28;20410;-74
2023/08/02 00:32:46;;;;;;;36.03;33.30;;;20.20;99.90;;;;;;5014842;28;20045;-74
2023/08/02 00:35:13;;;;;;;39.10;35.95;;;20.20;99.90;;;;;;5030736;28;20057;-75
2023/08/02 00:37:40;;;;;;;37.47;34.67;;;20.20;99.90;;;;;;5031261;28;20030;-75
2023/08/02 00:40:07;;;;;;;31.83;29.05;;;20.20;99.90;;;;;;5032139;28;20038;-74
2023/08/02 00:42:33;;;;;;;37.00;34.05;;;20.20;99.90;;;;;;5032539;28;20041;-74
2023/08/02 00:44:59;;;;;;;34.45;31.20;;;20.30;99.90;;;;;;5036023;28;20040;-74
2023/08/02 00:47:25;;;;;;;31.10;28.40;;;20.30;99.90;;;;;;5034364;28;20033;-74
2023/08/02 00:49:51;;;;;;;34.63;31.73;;;20.30;99.90;;;;;;5034779;28;20493;-75
2023/08/02 00:52:17;;;;;;;28.92;26.30;;;20.30;99.90;;;;;;5034767;28;20033;-75
2023/08/02 00:54:44;;;;;;;24.83;22.42;;;20.30;99.90;;;;;;5036184;28;20033;-74
2023/08/02 00:57:10;;;;;;;28.08;25.52;;;20.20;99.90;;;;;;5035785;28;20491;-74
2023/08/02 00:59:42;;;;;;;34.63;31.98;;;20.20;99.90;;;;;;5034585;28;20040;-74
2023/08/02 01:02:08;;;;;;;31.60;28.80;;;20.20;99.90;;;;;;5035258;28;20045;-75
2023/08/02 01:04:35;;;;;;;30.20;27.40;;;20.20;99.90;;;;;;5034936;28;20211;-75
2023/08/02 01:07:19;;;;;;;29.90;27.42;;;20.20;99.90;;;;;;5034173;28;20045;-75
2023/08/02 01:09:56;;;;;;;25.30;23.23;;;20.30;99.90;;;;;;5035845;28;20037;-75
2023/08/02 01:12:22;;;;;;;31.02;27.95;;;20.30;99.90;;;;;;5034499;28;20029;-74
2023/08/02 01:14:50;;;;;;;28.23;25.23;;;20.30;99.90;;;;;;5033963;28;20386;-75
2023/08/02 01:17:16;;;;;;;25.67;23.65;;;20.30;99.90;;;;;;5033633;28;20398;-75
2023/08/02 01:19:42;;;;;;;26.98;24.27;;;20.30;99.90;;;;;;5017503;28;20041;-75
2023/08/02 01:22:08;;;;;;;26.42;24.05;;;20.30;99.90;;;;;;5034206;28;20045;-75
2023/08/02 01:24:35;;;;;;;26.33;24.00;;;20.30;99.90;;;;;;5035612;28;20045;-75
2023/08/02 01:27:07;;;;;;;25.80;23.60;;;20.30;99.90;;;;;;5034286;28;20034;-75
2023/08/02 01:29:33;;;;;;;25.60;23.52;;;20.30;99.90;;;;;;5033965;28;20367;-75
2023/08/02 01:31:59;;;;;;;26.77;24.08;;;20.40;99.90;;;;;;5016846;28;20045;-75
2023/08/02 01:34:25;;;;;;;24.98;22.75;;;20.40;99.90;;;;;;5017920;28;20025;-74
2023/08/02 01:36:52;;;;;;;22.13;20.23;;;20.30;99.90;;;;;;5034056;28;20030;-74
2023/08/02 01:39:18;;;;;;;25.30;22.85;;;20.40;99.90;;;;;;5035234;28;20029;-75
2023/08/02 01:41:44;;;;;;;33.15;30.50;;;20.40;99.90;;;;;;5034921;28;20052;-74
2023/08/02 01:44:10;;;;;;;27.70;25.23;;;20.40;99.90;;;;;;5034971;28;20026;-74
2023/08/02 01:46:36;;;;;;;27.35;24.35;;;20.40;99.90;;;;;;5034434;28;20044;-74
2023/08/02 01:49:02;;;;;;;25.67;23.00;;;20.40;99.90;;;;;;5035067;28;20030;-75
2023/08/02 01:51:28;;;;;;;26.67;24.48;;;20.40;99.90;;;;;;5034780;28;20518;-75
2023/08/02 01:53:54;;;;;;;33.17;29.33;;;20.40;99.90;;;;;;5034747;28;20033;-75
2023/08/02 01:56:20;;;;;;;29.10;24.48;;;20.40;99.90;;;;;;5033469;28;20600;-74
2023/08/02 01:58:46;;;;;;;25.98;23.52;;;20.40;99.90;;;;;;5033102;28;20033;-73
2023/08/02 02:01:12;;;;;;;27.85;25.05;;;20.40;99.90;;;;;;5027722;28;20402;-75
2023/08/02 02:03:38;;;;;;;32.80;29.33;;;20.40;99.90;;;;;;5028086;28;20017;-74
2023/08/02 02:06:05;;;;;;;31.48;28.63;;;20.40;99.90;;;;;;5032966;28;20029;-75
2023/08/02 02:08:31;;;;;;;30.58;27.50;;;20.50;99.90;;;;;;5031974;28;20033;-75
2023/08/02 02:10:57;;;;;;;27.48;24.77;;;20.50;99.90;;;;;;5032882;28;20030;-74
2023/08/02 02:13:23;;;;;;;30.13;27.02;;;20.50;99.90;;;;;;5032813;28;20029;-75
2023/08/02 02:15:49;;;;;;;31.63;27.90;;;20.50;99.90;;;;;;5008271;28;20042;-75
2023/08/02 02:18:16;;;;;;;34.13;31.15;;;20.50;99.90;;;;;;5013537;28;20471;-74
2023/08/02 02:20:42;;;;;;;36.08;32.38;;;20.50;99.90;;;;;;5011867;28;20061;-75
2023/08/02 02:23:08;;;;;;;37.90;31.25;;;20.50;99.90;;;;;;5013392;28;20027;-74
2023/08/02 02:25:34;;;;;;;41.20;36.78;;;20.50;99.90;;;;;;5013113;28;20036;-73
2023/08/02 02:28:00;;;;;;;39.13;29.80;;;20.50;99.90;;;;;;5011664;28;20382;-75
2023/08/02 02:30:26;;;;;;;36.15;32.47;;;20.60;99.90;;;;;;5011167;28;20049;-75
2023/08/02 02:32:52;;;;;;;35.40;31.63;;;20.60;99.90;;;;;;5013177;28;20025;-75
2023/08/02 02:35:18;;;;;;;43.17;39.47;;;20.60;99.90;;;;;;5012557;28;20098;-74
2023/08/02 02:37:45;;;;;;;40.53;36.63;;;20.60;99.90;;;;;;4996696;28;20038;-75
2023/08/02 02:40:11;;;;;;;38.45;34.75;;;20.60;99.90;;;;;;5014051;28;20036;-74
2023/08/02 02:42:43;;;;;;;43.90;39.55;;;20.60;99.90;;;;;;5014187;28;20033;-75
2023/08/02 02:45:09;;;;;;;42.28;37.97;;;20.60;99.90;;;;;;5013721;28;20030;-75
2023/08/02 02:47:36;;;;;;;53.67;48.65;;;20.60;99.90;;;;;;4982669;28;20057;-75
2023/08/02 02:50:02;;;;;;;56.58;51.75;;;20.60;99.90;;;;;;5006960;28;20030;-75
2023/08/02 02:52:28;;;;;;;60.72;55.78;;;20.60;99.90;;;;;;5012806;28;20037;-75
2023/08/02 02:54:55;;;;;;;67.53;61.65;;;20.60;99.90;;;;;;5012696;28;20034;-74
2023/08/02 02:57:21;;;;;;;59.03;54.53;;;20.60;99.90;;;;;;5013878;28;20038;-75
2023/08/02 02:59:47;;;;;;;58.63;54.03;;;20.60;99.90;;;;;;5014007;28;20481;-75
2023/08/02 03:02:13;;;;;;;52.70;47.72;;;20.60;99.90;;;;;;5012165;28;20050;-75
2023/08/02 03:04:39;;;;;;;47.10;42.42;;;20.70;99.90;;;;;;4996225;28;20048;-75
2023/08/02 03:07:05;;;;;;;45.33;41.20;;;20.70;99.90;;;;;;5012961;28;20459;-74
2023/08/02 03:09:31;;;;;;;40.72;36.80;;;20.60;99.90;;;;;;5012546;28;20026;-75
2023/08/02 03:11:57;;;;;;;36.15;32.30;;;20.60;99.90;;;;;;5012277;28;20041;-75
2023/08/02 03:14:23;;;;;;;35.55;31.55;;;20.60;99.90;;;;;;5013701;28;20033;-75
2023/08/02 03:16:50;;;;;;;28.75;25.77;;;20.60;99.90;;;;;;5011891;28;20427;-75
2023/08/02 03:19:16;;;;;;;30.65;26.95;;;20.60;99.90;;;;;;5013686;28;20026;-75
2023/08/02 03:21:43;;;;;;;35.75;32.55;;;20.60;99.90;;;;;;5013490;28;20402;-75
2023/08/02 03:24:09;;;;;;;27.25;22.77;;;20.60;99.90;;;;;;5013356;28;20656;-75
2023/08/02 03:26:35;;;;;;;31.80;28.67;;;20.50;99.90;;;;;;5013303;28;20038;-75
2023/08/02 03:29:01;;;;;;;28.88;26.02;;;20.60;99.90;;;;;;5012391;28;20029;-75
2023/08/02 03:31:27;;;;;;;25.20;22.35;;;20.60;99.90;;;;;;5012837;28;20042;-75
2023/08/02 03:33:53;;;;;;;26.92;24.40;;;20.60;99.90;;;;;;5012234;28;20391;-75
2023/08/02 03:36:20;;;;;;;26.10;23.40;;;20.60;99.90;;;;;;5013147;28;20037;-75
2023/08/02 03:38:46;;;;;;;28.60;26.05;;;20.60;99.90;;;;;;5011909;28;20041;-75
2023/08/02 03:41:12;;;;;;;32.65;28.05;;;20.60;99.90;;;;;;5013036;28;20053;-75
2023/08/02 03:43:38;;;;;;;28.20;25.48;;;20.60;99.90;;;;;;5013358;28;20026;-75
2023/08/02 03:46:04;;;;;;;31.38;28.83;;;20.60;99.90;;;;;;5011427;28;20041;-76
2023/08/02 03:48:31;;;;;;;26.15;23.45;;;20.60;99.90;;;;;;4995555;28;20507;-75
2023/08/02 03:50:58;;;;;;;30.17;26.98;;;20.60;99.90;;;;;;5011160;28;20049;-75
2023/08/02 03:53:26;;;;;;;30.58;27.90;;;20.60;99.90;;;;;;4995536;28;20042;-75
2023/08/02 03:55:52;;;;;;;23.02;20.73;;;20.60;99.90;;;;;;5011609;28;20033;-75
2023/08/02 03:58:18;;;;;;;27.23;24.63;;;20.60;99.90;;;;;;5013001;28;20026;-75
2023/08/02 04:00:44;;;;;;;35.10;31.83;;;20.60;99.90;;;;;;5012787;28;20057;-75
2023/08/02 04:03:10;;;;;;;35.38;32.25;;;20.60;99.90;;;;;;5012960;28;20022;-75
2023/08/02 04:05:36;;;;;;;35.28;32.28;;;20.60;99.90;;;;;;5012812;28;20034;-75
2023/08/02 04:08:03;;;;;;;33.67;30.52;;;20.60;99.90;;;;;;5012646;28;20030;-75
2023/08/02 04:10:29;;;;;;;38.45;35.10;;;20.60;99.90;;;;;;5011223;28;20392;-75
2023/08/02 04:12:55;;;;;;;23.77;20.88;;;20.50;99.90;;;;;;5013074;28;20029;-74
2023/08/02 04:15:21;;;;;;;29.45;26.75;;;20.60;99.90;;;;;;5011106;28;20096;-74
2023/08/02 04:17:49;;;;;;;29.90;27.48;;;20.60;99.90;;;;;;5012493;28;20030;-74
2023/08/02 04:20:15;;;;;;;24.38;22.02;;;20.60;99.90;;;;;;5011222;28;20053;-73
2023/08/02 04:22:41;;;;;;;32.58;29.75;;;20.60;99.90;;;;;;5011190;28;20034;-74
2023/08/02 04:25:07;;;;;;;25.63;23.58;;;20.60;99.90;;;;;;5012798;28;20029;-74
2023/08/02 04:27:33;;;;;;;32.10;29.08;;;20.60;99.90;;;;;;5012717;28;20041;-75
2023/08/02 04:29:59;;;;;;;34.20;31.00;;;20.50;99.90;;;;;;5011542;28;20022;-75
2023/08/02 04:32:26;;;;;;;28.20;26.02;;;20.50;99.90;;;;;;5012271;28;20040;-75
2023/08/02 04:34:52;;;;;;;27.40;24.90;;;20.60;99.90;;;;;;5011564;28;20022;-75
2023/08/02 04:37:18;;;;;;;30.10;28.15;;;20.50;99.90;;;;;;5012325;28;20119;-75
2023/08/02 04:39:44;;;;;;;27.52;25.27;;;20.60;99.90;;;;;;5011476;28;20040;-75
2023/08/02 04:42:10;;;;;;;22.73;20.70;;;20.60;99.90;;;;;;5011300;28;20045;-75
2023/08/02 04:44:36;;;;;;;28.00;25.52;;;20.60;99.90;;;;;;4994927;28;20046;-75
2023/08/02 04:47:03;;;;;;;26.45;24.15;;;20.50;99.90;;;;;;5011985;28;20030;-76
2023/08/02 04:49:29;;;;;;;22.67;20.95;;;20.60;99.90;;;;;;5011253;28;20130;-76
2023/08/02 04:51:55;;;;;;;25.85;23.67;;;20.50;99.90;;;;;;4992596;28;20077;-75
2023/08/02 04:54:21;;;;;;;28.17;26.10;;;20.60;99.90;;;;;;4992669;28;20027;-75
2023/08/02 04:56:47;;;;;;;26.90;24.95;;;20.60;99.90;;;;;;4991760;28;20038;-75
2023/08/02 04:59:13;;;;;;;28.27;25.98;;;20.60;99.90;;;;;;4992696;28;20022;-75
2023/08/02 05:01:39;;;;;;;26.10;24.30;;;20.60;99.90;;;;;;4992106;28;20049;-75
2023/08/02 05:04:09;;;;;;;26.85;24.98;;;20.60;99.90;;;;;;4992624;28;20035;-76
2023/08/02 05:06:35;;;;;;;26.70;24.52;;;20.60;99.90;;;;;;4991166;28;20034;-75
2023/08/02 05:09:04;;;;;;;25.40;23.42;;;20.60;99.90;;;;;;5007706;28;20053;-75
2023/08/02 05:11:33;;;;;;;20.08;18.60;;;20.60;99.90;;;;;;5007492;28;20022;-76
2023/08/02 05:13:59;;;;;;;24.75;22.55;;;20.60;99.90;;;;;;4991504;28;20388;-76
2023/08/02 05:16:26;;;;;;;25.73;23.75;;;20.60;99.90;;;;;;5013557;28;20041;-74
2023/08/02 05:18:52;;;;;;;24.00;22.42;;;20.60;99.90;;;;;;4994849;28;20407;-75
2023/08/02 05:21:23;;;;;;;21.73;20.30;;;20.60;99.90;;;;;;5010593;28;20030;-75
2023/08/02 05:23:49;;;;;;;23.60;21.88;;;20.60;99.90;;;;;;5010994;28;20021;-77
2023/08/02 05:26:15;;;;;;;23.13;21.35;;;20.60;99.90;;;;;;5011031;28;20054;-75
2023/08/02 05:28:41;;;;;;;27.30;25.50;;;20.60;99.90;;;;;;5011543;28;20037;-72
2023/08/02 05:31:11;;;;;;;23.88;22.17;;;20.60;99.90;;;;;;5024184;28;20030;-75
2023/08/02 05:33:37;;;;;;;26.88;25.13;;;20.70;99.90;;;;;;5034322;28;20034;-75
2023/08/02 05:36:04;;;;;;;21.90;20.35;;;20.70;99.90;;;;;;5035207;28;20021;-75
2023/08/02 05:38:32;;;;;;;25.98;24.15;;;20.70;99.90;;;;;;5034046;28;20037;-74
2023/08/02 05:41:02;;;;;;;30.35;28.52;;;20.70;99.90;;;;;;5035259;28;20471;-74
2023/08/02 05:43:29;;;;;;;25.23;23.60;;;20.60;99.90;;;;;;5034217;28;20139;-75
2023/08/02 05:45:55;;;;;;;28.80;27.10;;;20.70;99.90;;;;;;5033593;28;20034;-75
2023/08/02 05:48:21;;;;;;;36.88;34.65;;;20.60;99.90;;;;;;5033875;28;20022;-74
2023/08/02 05:50:47;;;;;;;35.78;33.88;;;20.60;99.90;;;;;;5017356;28;20486;-75
2023/08/02 05:53:13;;;;;;;30.50;28.70;;;20.60;99.90;;;;;;5033961;28;20025;-75
2023/08/02 05:55:40;;;;;;;26.95;25.38;;;20.60;99.90;;;;;;5033984;28;20099;-74
2023/08/02 05:58:06;;;;;;;25.67;24.05;;;20.60;99.90;;;;;;5033777;28;20030;-75
2023/08/02 06:00:32;;;;;;;38.85;36.85;;;20.60;99.90;;;;;;5034461;28;20037;-74
2023/08/02 06:02:58;;;;;;;43.17;41.08;;;20.50;99.90;;;;;;5034773;28;20038;-75
2023/08/02 06:05:24;;;;;;;32.10;30.38;;;20.50;99.90;;;;;;5033408;28;20026;-75
2023/08/02 06:07:51;;;;;;;31.63;30.10;;;20.40;99.90;;;;;;5034837;28;20033;-74
2023/08/02 06:10:18;;;;;;;35.88;34.03;;;20.40;99.90;;;;;;5034712;28;20036;-75
2023/08/02 06:12:44;;;;;;;37.47;35.50;;;20.40;99.90;;;;;;5033666;28;20029;-75
2023/08/02 06:15:10;;;;;;;30.92;29.35;;;20.40;99.90;;;;;;5034205;28;20028;-74
2023/08/02 06:17:36;;;;;;;26.92;25.52;;;20.50;99.90;;;;;;5033482;28;20038;-74
2023/08/02 06:20:03;;;;;;;28.17;26.67;;;20.50;99.90;;;;;;5034231;28;20026;-75
2023/08/02 06:22:29;;;;;;;33.80;32.05;;;20.50;99.90;;;;;;5034404;28;20044;-74
2023/08/02 06:24:55;;;;;;;37.90;36.08;;;20.60;99.90;;;;;;5034553;28;20029;-74
2023/08/02 06:27:21;;;;;;;41.22;39.15;;;20.60;99.90;;;;;;5033218;28;20040;-74
2023/08/02 06:29:47;;;;;;;43.22;41.08;;;20.60;99.90;;;;;;5034345;28;20037;-74
2023/08/02 06:32:13;;;;;;;33.20;31.50;;;20.60;99.90;;;;;;5032589;28;20033;-73
2023/08/02 06:34:39;;;;;;;33.40;31.65;;;20.60;99.90;;;;;;5033011;28;20037;-73
2023/08/02 06:37:05;;;;;;;38.25;36.33;;;20.70;99.90;;;;;;5034337;28;20049;-74
2023/08/02 06:39:32;;;;;;;43.25;40.97;;;20.70;99.90;;;;;;5034056;28;20383;-73
2023/08/02 06:41:58;;;;;;;37.15;35.00;;;20.70;99.90;;;;;;5032062;28;20049;-73
2023/08/02 06:44:24;;;;;;;35.13;32.92;;;20.70;99.90;;;;;;5032841;28;20030;-73
2023/08/02 06:46:51;;;;;;;31.20;29.55;;;20.70;99.90;;;;;;5033318;28;20033;-72
2023/08/02 06:49:17;;;;;;;37.75;35.85;;;20.70;99.90;;;;;;5032765;28;20021;-74
2023/08/02 06:51:43;;;;;;;29.15;27.20;;;20.70;99.90;;;;;;5033929;28;20041;-73
2023/08/02 06:54:09;;;;;;;65.78;61.78;;;20.60;99.90;;;;;;5032786;28;20029;-73
2023/08/02 06:56:35;;;;;;;37.08;34.47;;;20.50;99.90;;;;;;5033905;28;20033;-73
2023/08/02 06:59:01;;;;;;;57.67;53.50;;;20.40;99.90;;;;;;5033801;28;20466;-73
2023/08/02 07:01:27;;;;;;;35.72;32.97;;;20.30;99.90;;;;;;5031851;28;20034;-73
2023/08/02 07:03:53;;;;;;;22.95;20.65;;;20.10;99.90;;;;;;5032586;28;20025;-73
2023/08/02 07:06:20;;;;;;;23.38;19.83;;;20.00;99.90;;;;;;5033728;28;20022;-73
2023/08/02 07:08:46;;;;;;;20.27;18.27;;;20.00;99.90;;;;;;5032526;28;20029;-73
2023/08/02 07:11:12;;;;;;;34.08;31.17;;;20.00;99.90;;;;;;5016103;28;20386;-73
2023/08/02 07:13:42;;;;;;;28.90;26.55;;;20.00;99.90;;;;;;5015723;28;20478;-74
2023/08/02 07:16:08;;;;;;;20.10;16.15;;;20.10;99.90;;;;;;5031360;28;20053;-73
2023/08/02 07:18:34;;;;;;;20.80;18.83;;;20.10;99.90;;;;;;5032339;28;20032;-73
2023/08/02 07:21:08;;;;;;;29.33;20.17;;;20.20;99.90;;;;;;5032324;28;20045;-73
2023/08/02 07:23:34;;;;;;;23.13;20.85;;;20.20;99.90;;;;;;5033501;28;20364;-73
2023/08/02 07:26:00;;;;;;;41.85;38.80;;;20.30;99.90;;;;;;5032221;28;20025;-74
2023/08/02 07:28:26;;;;;;;32.83;30.00;;;20.30;99.90;;;;;;5033202;28;20033;-73
2023/08/02 07:30:52;;;;;;;48.03;44.30;;;20.30;99.90;;;;;;5031431;28;20030;-74
2023/08/02 07:33:18;;;;;;;81.78;76.13;;;20.40;99.90;;;;;;5032057;28;20391;-73
2023/08/02 07:35:47;;;;;;;105.47;98.90;;;20.30;99.90;;;;;;5033191;28;20461;-73
2023/08/02 07:38:14;;;;;;;88.63;82.80;;;20.30;99.90;;;;;;5032113;28;20037;-73
2023/08/02 07:40:43;;;;;;;71.18;66.80;;;20.30;99.90;;;;;;5033285;28;20045;-73
2023/08/02 07:43:09;;;;;;;64.93;60.47;;;20.30;99.90;;;;;;5031777;28;20033;-73
2023/08/02 07:45:36;;;;;;;61.20;57.00;;;20.30;99.90;;;;;;5031054;28;20037;-73
2023/08/02 07:48:02;;;;;;;65.35;60.63;;;20.20;99.90;;;;;;5031169;28;20033;-73
2023/08/02 07:50:28;;;;;;;53.80;49.88;;;20.10;99.90;;;;;;5032834;28;20053;-73
2023/08/02 07:52:54;;;;;;;45.28;41.58;;;20.00;99.90;;;;;;5032626;28;20025;-73
2023/08/02 07:55:20;;;;;;;37.53;34.30;;;20.00;99.90;;;;;;5032845;28;20029;-73
2023/08/02 07:57:46;;;;;;;25.48;23.25;;;19.90;99.90;;;;;;5031614;28;20030;-73
2023/08/02 08:00:13;;;;;;;20.27;17.33;;;20.10;99.90;;;;;;5032017;28;20030;-73
2023/08/02 08:02:39;;;;;;;20.30;18.27;;;20.20;99.90;;;;;;5031441;28;20049;-73
2023/08/02 08:05:06;;;;;;;22.88;20.85;;;20.30;99.90;;;;;;5031151;28;20038;-73
2023/08/02 08:07:32;;;;;;;21.20;18.10;;;20.40;99.90;;;;;;5032695;28;20037;-73
2023/08/02 08:09:59;;;;;;;48.13;44.72;;;20.50;99.90;;;;;;5031281;28;20489;-73
2023/08/02 08:12:25;;;;;;;34.65;31.85;;;20.50;99.90;;;;;;5031414;28;20034;-73
2023/08/02 08:14:51;;;;;;;15.35;13.65;;;20.50;99.90;;;;;;5030979;28;20022;-73
2023/08/02 08:17:17;;;;;;;17.77;13.27;;;20.40;99.90;;;;;;5030633;28;20044;-73
2023/08/02 08:19:44;;;;;;;27.20;24.33;;;20.40;99.90;;;;;;5032481;28;20033;-73
2023/08/02 08:22:10;;;;;;;28.23;26.17;;;20.40;99.90;;;;;;5032344;28;20039;-72
2023/08/02 08:24:36;;;;;;;18.05;15.23;;;20.50;99.90;;;;;;5032405;28;20040;-73
2023/08/02 08:27:02;;;;;;;18.20;15.25;;;20.50;99.90;;;;;;5031289;28;20029;-73
2023/08/02 08:29:29;;;;;;;19.13;17.13;;;20.70;99.90;;;;;;5030747;28;20029;-73
2023/08/02 08:31:55;;;;;;;20.38;18.33;;;21.00;99.90;;;;;;5030606;28;20060;-74
2023/08/02 08:34:21;;;;;;;23.48;21.15;;;21.20;99.90;;;;;;5031137;28;20438;-73
2023/08/02 08:36:47;;;;;;;27.90;25.42;;;21.30;99.90;;;;;;5032398;28;20470;-73
2023/08/02 08:39:13;;;;;;;35.65;32.83;;;21.40;99.90;;;;;;5031040;28;20037;-73
2023/08/02 08:41:39;;;;;;;36.65;33.38;;;21.60;99.90;;;;;;5032219;28;20132;-73
2023/08/02 08:44:05;;;;;;;44.20;41.10;;;21.80;99.90;;;;;;5030694;28;20036;-73
2023/08/02 08:46:32;;;;;;;48.55;45.00;;;21.90;99.90;;;;;;5031686;28;20030;-73
2023/08/02 08:48:59;;;;;;;38.72;35.90;;;21.90;99.90;;;;;;5017522;28;20013;-73
2023/08/02 08:51:25;;;;;;;57.80;53.83;;;22.00;99.90;;;;;;5030894;28;20063;-72
2023/08/02 08:53:51;;;;;;;47.55;44.05;;;21.90;99.90;;;;;;5031976;28;20100;-73
2023/08/02 08:56:18;;;;;;;37.92;34.55;;;21.80;99.90;;;;;;5030923;28;20498;-73
2023/08/02 08:58:44;;;;;;;48.10;44.60;;;21.70;99.90;;;;;;5030653;28;20029;-73
2023/08/02 09:01:10;;;;;;;56.42;52.08;;;21.70;99.90;;;;;;5030317;28;20572;-73
2023/08/02 09:03:37;;;;;;;45.38;41.92;;;21.90;99.90;;;;;;5031489;28;20033;-73
2023/08/02 09:06:04;;;;;;;75.55;70.40;;;21.90;99.90;;;;;;5036066;28;20028;-73
2023/08/02 09:08:41;;;;;;;90.80;84.80;;;21.80;99.90;;;;;;5034650;28;20025;-72
2023/08/02 09:11:07;;;;;;;62.97;58.47;;;21.70;99.90;;;;;;5034767;28;20037;-72
2023/08/02 09:13:33;;;;;;;62.95;58.42;;;21.60;99.90;;;;;;5034409;28;20030;-72
2023/08/02 09:16:08;;;;;;;61.88;57.33;;;21.40;99.90;;;;;;5034002;28;20041;-72
2023/08/02 09:18:39;;;;;;;72.78;67.97;;;21.40;99.90;;;;;;5035756;28;20485;-72
2023/08/02 09:21:06;;;;;;;42.30;39.10;;;21.30;99.90;;;;;;5034480;28;20034;-73
2023/08/02 09:23:32;;;;;;;66.55;62.00;;;21.20;99.90;;;;;;5035777;28;20053;-72
2023/08/02 09:26:14;;;;;;;53.60;49.95;;;21.30;99.90;;;;;;5035605;28;20494;-72
2023/08/02 09:28:40;;;;;;;59.85;55.90;;;21.50;99.90;;;;;;5034374;28;20045;-73
2023/08/02 09:31:16;;;;;;;75.20;70.72;;;21.80;99.90;;;;;;5033886;28;20041;-72
2023/08/02 09:33:50;;;;;;;77.15;72.05;;;21.90;99.90;;;;;;5034310;28;20351;-72
2023/08/02 09:36:26;;;;;;;68.07;63.47;;;22.00;99.90;;;;;;5034424;28;20026;-72
2023/08/02 09:39:09;;;;;;;57.50;54.17;;;22.00;99.90;;;;;;5018018;28;20049;-72
2023/08/02 09:41:35;;;;;;;54.15;50.40;;;22.00;99.90;;;;;;5018079;28;20041;-72
2023/08/02 09:44:01;;;;;;;82.88;77.53;;;22.00;99.90;;;;;;5034024;28;20037;-72
2023/08/02 09:46:35;;;;;;;67.78;62.97;;;22.10;99.90;;;;;;5035057;28;20036;-72
2023/08/02 09:49:02;;;;;;;78.65;73.90;;;22.10;99.90;;;;;;5020903;28;20021;-72
2023/08/02 09:51:39;;;;;;;81.00;75.88;;;22.10;99.90;;;;;;5017308;28;20414;-72
2023/08/02 09:54:05;;;;;;;62.80;58.53;;;22.10;99.90;;;;;;5033947;28;20026;-72
2023/08/02 09:56:32;;;;;;;65.75;61.42;;;22.00;99.90;;;;;;5033594;28;20026;-72
2023/08/02 09:58:58;;;;;;;50.90;47.28;;;22.00;99.90;;;;;;5033827;28;20065;-72
2023/08/02 10:01:24;;;;;;;75.35;70.53;;;22.10;99.90;;;;;;5033305;28;20045;-73
2023/08/02 10:03:55;;;;;;;86.57;81.43;;;22.10;99.90;;;;;;5033642;28;20052;-72
2023/08/02 10:06:38;;;;;;;97.57;91.63;;;22.10;99.90;;;;;;5033813;28;20406;-72
2023/08/02 10:09:07;;;;;;;67.03;62.00;;;22.10;99.90;;;;;;5033581;28;20025;-72
2023/08/02 10:11:34;;;;;;;51.83;48.35;;;22.20;99.90;;;;;;5033344;28;20025;-73
2023/08/02 10:14:00;;;;;;;73.13;68.32;;;22.20;99.90;;;;;;5033759;28;20046;-72
2023/08/02 10:16:26;;;;;;;70.57;66.13;;;22.20;99.90;;;;;;5032690;28;20037;-72
2023/08/02 10:18:52;;;;;;;89.05;83.82;;;22.20;99.90;;;;;;5016935;28;20505;-73
2023/08/02 10:21:20;;;;;;;87.80;82.25;;;22.10;99.90;;;;;;5033463;28;20040;-72
2023/08/02 10:23:46;;;;;;;106.22;100.15;;;22.10;99.90;;;;;;5033263;28;20038;-73
2023/08/02 10:26:13;;;;;;;138.30;130.60;;;22.10;99.90;;;;;;5033060;28;20037;-73
2023/08/02 10:28:40;;;;;;;135.68;128.20;;;22.30;99.90;;;;;;5033288;28;20032;-73
2023/08/02 10:31:08;;;;;;;73.05;68.38;;;22.60;99.90;;;;;;5032950;28;20026;-73
2023/08/02 10:33:34;;;;;;;59.47;55.33;;;22.90;99.90;;;;;;5033123;28;20493;-73
2023/08/02 10:36:05;;;;;;;56.40;52.47;;;23.00;99.90;;;;;;5016578;28;20141;-72
2023/08/02 10:38:41;;;;;;;65.15;60.88;;;23.00;99.90;;;;;;5034081;28;20037;-72
2023/08/02 10:41:12;;;;;;;55.25;51.65;;;22.90;99.90;;;;;;5034285;28;20045;-73
2023/08/02 10:43:53;;;;;;;;;;;22.80;99.90;;;;;;5033411;28;20033;-73
2023/08/02 10:46:19;;;;;;;;;;;22.70;99.90;;;;;;5034090;28;19909;-73
2023/08/02 10:48:45;;;;;;;50.45;46.78;;;22.70;99.90;;;;;;5034009;28;20008;-73
2023/08/02 10:51:26;;;;;;;58.20;54.35;;;22.70;99.90;;;;;;5033934;28;20053;-73
2023/08/02 10:54:25;;;;;;;54.40;50.85;;;22.60;99.90;;;;;;5033549;28;20030;-73
2023/08/02 10:56:51;;;;;;;56.08;52.33;;;22.60;99.90;;;;;;5013874;28;20383;-73
2023/08/02 10:59:24;;;;;;;65.13;60.83;;;22.40;99.90;;;;;;5031732;28;20351;-72
2023/08/02 11:01:54;;;;;;;56.60;52.97;;;22.40;99.90;;;;;;5025249;28;20040;-73
2023/08/02 11:04:20;;;;;;;56.47;52.72;;;22.40;99.90;;;;;;5032597;28;20037;-72
2023/08/02 11:06:46;;;;;;;57.50;53.50;;;22.40;99.90;;;;;;5032414;28;20033;-72
2023/08/02 11:09:12;;;;;;;73.18;68.72;;;22.40;99.90;;;;;;5032034;28;20059;-72
2023/08/02 11:11:39;;;;;;;63.65;59.72;;;22.40;99.90;;;;;;5032436;28;20034;-72
2023/08/02 11:14:05;;;;;;;77.53;73.00;;;22.30;99.90;;;;;;5032433;28;20032;-72
2023/08/02 11:16:37;;;;;;;83.38;78.30;;;22.40;99.90;;;;;;5032952;28;20037;-73
2023/08/02 11:19:10;;;;;;;73.75;69.00;;;22.40;99.90;;;;;;5032264;28;20041;-72
2023/08/02 11:21:39;;;;;;;78.03;73.05;;;22.30;99.90;;;;;;5032254;28;20028;-73
2023/08/02 11:24:05;;;;;;;68.45;63.80;;;22.30;99.90;;;;;;5031097;28;20060;-73
2023/08/02 11:26:31;;;;;;;75.63;70.93;;;22.50;99.90;;;;;;5031592;28;20030;-73
2023/08/02 11:28:58;;;;;;;84.90;79.97;;;22.60;99.90;;;;;;5032185;28;20041;-72
2023/08/02 11:31:25;;;;;;;84.78;79.55;;;22.60;99.90;;;;;;5032844;28;20034;-72
2023/08/02 11:33:51;;;;;;;91.72;86.07;;;22.50;99.90;;;;;;5031891;28;20036;-72
2023/08/02 11:36:17;;;;;;;101.60;95.45;;;22.40;99.90;;;;;;5032113;28;20030;-73
2023/08/02 11:38:43;;;;;;;103.28;97.20;;;22.30;99.90;;;;;;5031484;28;20363;-73
2023/08/02 11:41:20;;;;;;;106.05;99.65;;;22.30;99.90;;;;;;5031937;28;20036;-73
2023/08/02 11:43:46;;;;;;;97.72;91.55;;;22.30;99.90;;;;;;5032915;28;20493;-73
2023/08/02 11:46:21;;;;;;;105.97;99.53;;;22.30;99.90;;;;;;5030646;28;20037;-73
2023/08/02 11:48:48;;;;;;;96.80;90.93;;;22.30;99.90;;;;;;5032966;28;20033;-73
2023/08/02 11:51:15;;;;;;;101.55;95.20;;;22.20;99.90;;;;;;5030734;28;20494;-72
2023/08/02 11:53:51;;;;;;;98.70;92.95;;;22.00;99.90;;;;;;5014300;28;20044;-73
2023/08/02 11:56:19;;;;;;;68.55;63.50;;;21.90;99.90;;;;;;5030926;28;20025;-73
2023/08/02 11:58:45;;;;;;;64.70;60.25;;;21.80;99.90;;;;;;5030888;28;20044;-72
2023/08/02 12:01:12;;;;;;;62.53;58.50;;;21.80;99.90;;;;;;5030528;28;20648;-73
2023/08/02 12:03:38;;;;;;;73.68;69.45;;;21.90;99.90;;;;;;5030546;28;20513;-73
2023/08/02 12:06:04;;;;;;;75.78;71.15;;;22.20;99.90;;;;;;5031721;28;20029;-73
2023/08/02 12:08:31;;;;;;;84.90;80.05;;;22.40;99.90;;;;;;5030592;28;20030;-73
2023/08/02 12:10:57;;;;;;;85.90;80.95;;;22.60;99.90;;;;;;5030544;28;20037;-72
2023/08/02 12:13:23;;;;;;;96.68;90.90;;;22.80;99.90;;;;;;5014262;28;20471;-73
2023/08/02 12:16:06;;;;;;;106.45;100.57;;;22.90;99.90;;;;;;5030025;28;20042;-73
2023/08/02 12:18:32;;;;;;;107.57;101.63;;;23.00;99.90;;;;;;5030472;28;20025;-72
2023/08/02 12:20:58;;;;;;;123.40;116.70;;;23.10;99.90;;;;;;5030318;28;20494;-72
2023/08/02 12:23:34;;;;;;;119.38;112.43;;;23.10;99.90;;;;;;5029553;28;20392;-72
2023/08/02 12:26:00;;;;;;;86.03;80.95;;;22.90;99.90;;;;;;5031488;28;20037;-72